Canefield Airport

Cloudy with light showers
29oC (84oF)

Cloudy with light showers


Winds: North north easterly @ 01kt / 02km/h

Humidity: 69%

Barometric Pressure: 1012 mb

Accumulated Rainfall for September: 126.8 mm

Updated: 10:00 local time (14:00 UTC)

Douglas-Charles Airport

Partly cloudy with slight haze
30oC (86oF)

Partly cloudy with slight haze


Winds: East south easterly @ 07kts / 13km/h

Humidity: 71%

Barometric Pressure: 1014 mb

Accumulated Rainfall for September: 242.5 mm

Updated: 11:00 local time (15:00 UTC)

Satellite Imagery

Satellite Imagery
Click image for larger view. (Source: National Hurricane Center).

Aviation Routine Report (METAR)

Douglas-Charles: METAR TDPD 221500Z 12007KT 9999 SCT021 30/24 Q1014=
Canefield: METAR TDCF 221400Z 02001KT 9999 -SHRA BKN019 SCT036 29/23 Q1012=